sensor_id;sensor_type;location;lat;lon;timestamp;temperature;humidity
20035;DHT22;10178;48.034;9.800;2023-12-28T00:00:41;4.60;99.90
20035;DHT22;10178;48.034;9.800;2023-12-28T00:03:07;3.90;99.90
20035;DHT22;10178;48.034;9.800;2023-12-28T00:05:32;3.30;99.90
20035;DHT22;10178;48.034;9.800;2023-12-28T00:07:58;3.10;99.90
20035;DHT22;10178;48.034;9.800;2023-12-28T00:10:25;3.20;99.90
20035;DHT22;10178;48.034;9.800;2023-12-28T00:12:51;3.70;99.90
20035;DHT22;10178;48.034;9.800;2023-12-28T00:15:16;3.60;99.90
20035;DHT22;10178;48.034;9.800;2023-12-28T00:17:42;3.00;99.90
20035;DHT22;10178;48.034;9.800;2023-12-28T00:20:08;2.80;99.90
20035;DHT22;10178;48.034;9.800;2023-12-28T00:22:33;2.90;99.90
20035;DHT22;10178;48.034;9.800;2023-12-28T00:24:59;2.60;99.90
20035;DHT22;10178;48.034;9.800;2023-12-28T00:27:25;2.40;99.90
20035;DHT22;10178;48.034;9.800;2023-12-28T00:29:50;2.30;99.90
20035;DHT22;10178;48.034;9.800;2023-12-28T00:32:16;2.10;99.90
20035;DHT22;10178;48.034;9.800;2023-12-28T00:34:41;2.20;99.90
20035;DHT22;10178;48.034;9.800;2023-12-28T00:37:07;2.30;99.90
20035;DHT22;10178;48.034;9.800;2023-12-28T00:39:33;2.40;99.90
20035;DHT22;10178;48.034;9.800;2023-12-28T00:41:59;2.40;99.90
20035;DHT22;10178;48.034;9.800;2023-12-28T00:44:25;2.50;99.90
20035;DHT22;10178;48.034;9.800;2023-12-28T00:46:51;2.80;99.90
20035;DHT22;10178;48.034;9.800;2023-12-28T00:49:16;2.60;99.90
20035;DHT22;10178;48.034;9.800;2023-12-28T00:51:42;2.60;99.90
20035;DHT22;10178;48.034;9.800;2023-12-28T00:54:07;2.80;99.90
20035;DHT22;10178;48.034;9.800;2023-12-28T00:56:33;2.80;99.90
20035;DHT22;10178;48.034;9.800;2023-12-28T00:58:59;2.60;99.90
20035;DHT22;10178;48.034;9.800;2023-12-28T01:01:27;2.60;99.90
20035;DHT22;10178;48.034;9.800;2023-12-28T01:03:52;2.60;99.90
20035;DHT22;10178;48.034;9.800;2023-12-28T01:06:18;2.60;99.90
20035;DHT22;10178;48.034;9.800;2023-12-28T01:08:43;2.70;99.90
20035;DHT22;10178;48.034;9.800;2023-12-28T01:11:11;3.00;99.90
20035;DHT22;10178;48.034;9.800;2023-12-28T01:13:37;2.70;99.90
20035;DHT22;10178;48.034;9.800;2023-12-28T01:16:03;2.80;99.90
20035;DHT22;10178;48.034;9.800;2023-12-28T01:18:29;3.00;99.90
20035;DHT22;10178;48.034;9.800;2023-12-28T01:20:55;3.00;99.90
20035;DHT22;10178;48.034;9.800;2023-12-28T01:23:20;2.70;99.90
20035;DHT22;10178;48.034;9.800;2023-12-28T01:25:46;2.30;99.90
20035;DHT22;10178;48.034;9.800;2023-12-28T01:28:12;2.00;99.90
20035;DHT22;10178;48.034;9.800;2023-12-28T01:30:37;2.20;99.90
20035;DHT22;10178;48.034;9.800;2023-12-28T01:33:04;2.40;99.90
20035;DHT22;10178;48.034;9.800;2023-12-28T01:35:29;2.50;99.90
20035;DHT22;10178;48.034;9.800;2023-12-28T01:37:55;2.60;99.90
20035;DHT22;10178;48.034;9.800;2023-12-28T01:40:21;2.80;99.90
20035;DHT22;10178;48.034;9.800;2023-12-28T01:42:46;2.70;99.90
20035;DHT22;10178;48.034;9.800;2023-12-28T01:45:12;2.90;99.90
20035;DHT22;10178;48.034;9.800;2023-12-28T01:47:38;2.70;99.90
20035;DHT22;10178;48.034;9.800;2023-12-28T01:50:06;2.80;99.90
20035;DHT22;10178;48.034;9.800;2023-12-28T01:52:32;3.20;99.90
20035;DHT22;10178;48.034;9.800;2023-12-28T01:54:57;3.30;99.90
20035;DHT22;10178;48.034;9.800;2023-12-28T01:57:23;3.70;99.90
20035;DHT22;10178;48.034;9.800;2023-12-28T01:59:50;4.10;99.90
20035;DHT22;10178;48.034;9.800;2023-12-28T02:02:16;4.30;99.90
20035;DHT22;10178;48.034;9.800;2023-12-28T02:04:42;4.20;99.90
20035;DHT22;10178;48.034;9.800;2023-12-28T02:07:09;3.40;99.90
20035;DHT22;10178;48.034;9.800;2023-12-28T02:09:36;3.00;99.90
20035;DHT22;10178;48.034;9.800;2023-12-28T02:12:02;2.80;99.90
20035;DHT22;10178;48.034;9.800;2023-12-28T02:14:28;2.60;99.90
20035;DHT22;10178;48.034;9.800;2023-12-28T02:17:06;2.50;99.90
20035;DHT22;10178;48.034;9.800;2023-12-28T02:22:25;2.60;99.90
20035;DHT22;10178;48.034;9.800;2023-12-28T02:25:04;2.70;99.90
20035;DHT22;10178;48.034;9.800;2023-12-28T02:27:29;2.90;99.90
20035;DHT22;10178;48.034;9.800;2023-12-28T02:29:56;3.20;99.90
20035;DHT22;10178;48.034;9.800;2023-12-28T02:32:43;3.00;99.90
20035;DHT22;10178;48.034;9.800;2023-12-28T02:35:29;2.80;99.90
20035;DHT22;10178;48.034;9.800;2023-12-28T02:37:59;2.70;99.90
20035;DHT22;10178;48.034;9.800;2023-12-28T02:40:26;2.80;99.90
20035;DHT22;10178;48.034;9.800;2023-12-28T02:42:53;2.80;99.90
20035;DHT22;10178;48.034;9.800;2023-12-28T02:45:19;2.80;99.90
20035;DHT22;10178;48.034;9.800;2023-12-28T02:47:45;2.90;99.90
20035;DHT22;10178;48.034;9.800;2023-12-28T02:50:11;3.00;99.90
20035;DHT22;10178;48.034;9.800;2023-12-28T02:52:36;3.00;99.90
20035;DHT22;10178;48.034;9.800;2023-12-28T02:55:02;3.10;99.90
20035;DHT22;10178;48.034;9.800;2023-12-28T02:57:28;3.10;99.90
20035;DHT22;10178;48.034;9.800;2023-12-28T02:59:54;3.20;99.90
20035;DHT22;10178;48.034;9.800;2023-12-28T03:02:22;3.40;99.90
20035;DHT22;10178;48.034;9.800;2023-12-28T03:04:47;3.70;99.90
20035;DHT22;10178;48.034;9.800;2023-12-28T03:07:13;3.90;99.90
20035;DHT22;10178;48.034;9.800;2023-12-28T03:09:39;3.80;99.90
20035;DHT22;10178;48.034;9.800;2023-12-28T03:12:05;4.00;99.90
20035;DHT22;10178;48.034;9.800;2023-12-28T03:14:31;3.80;99.90
20035;DHT22;10178;48.034;9.800;2023-12-28T03:16:57;3.80;99.90
20035;DHT22;10178;48.034;9.800;2023-12-28T03:19:23;3.60;99.90
20035;DHT22;10178;48.034;9.800;2023-12-28T03:21:48;3.60;99.90
20035;DHT22;10178;48.034;9.800;2023-12-28T03:24:14;3.60;99.90
20035;DHT22;10178;48.034;9.800;2023-12-28T03:26:40;3.60;99.90
20035;DHT22;10178;48.034;9.800;2023-12-28T03:29:06;3.80;99.90
20035;DHT22;10178;48.034;9.800;2023-12-28T03:31:32;3.70;99.90
20035;DHT22;10178;48.034;9.800;2023-12-28T03:33:58;3.70;99.90
20035;DHT22;10178;48.034;9.800;2023-12-28T03:36:24;3.60;99.90
20035;DHT22;10178;48.034;9.800;2023-12-28T03:38:49;3.40;99.90
20035;DHT22;10178;48.034;9.800;2023-12-28T03:41:19;3.40;99.90
20035;DHT22;10178;48.034;9.800;2023-12-28T03:43:45;3.20;99.90
20035;DHT22;10178;48.034;9.800;2023-12-28T03:46:11;3.30;99.90
20035;DHT22;10178;48.034;9.800;2023-12-28T03:48:37;3.30;99.90
20035;DHT22;10178;48.034;9.800;2023-12-28T03:51:03;3.20;99.90
20035;DHT22;10178;48.034;9.800;2023-12-28T03:53:29;3.20;99.90
20035;DHT22;10178;48.034;9.800;2023-12-28T03:55:57;3.10;99.90
20035;DHT22;10178;48.034;9.800;2023-12-28T03:58:23;3.20;99.90
20035;DHT22;10178;48.034;9.800;2023-12-28T04:00:49;3.30;99.90
20035;DHT22;10178;48.034;9.800;2023-12-28T04:03:14;3.20;99.90
20035;DHT22;10178;48.034;9.800;2023-12-28T04:05:40;3.20;99.90
20035;DHT22;10178;48.034;9.800;2023-12-28T04:08:06;3.20;99.90
20035;DHT22;10178;48.034;9.800;2023-12-28T04:10:33;3.10;99.90
20035;DHT22;10178;48.034;9.800;2023-12-28T04:12:59;3.10;99.90
20035;DHT22;10178;48.034;9.800;2023-12-28T04:15:29;3.20;99.90
20035;DHT22;10178;48.034;9.800;2023-12-28T04:17:56;3.10;99.90
20035;DHT22;10178;48.034;9.800;2023-12-28T04:20:21;3.10;99.90
20035;DHT22;10178;48.034;9.800;2023-12-28T04:22:47;3.20;99.90
20035;DHT22;10178;48.034;9.800;2023-12-28T04:25:13;3.30;99.90
20035;DHT22;10178;48.034;9.800;2023-12-28T04:27:39;3.30;99.90
20035;DHT22;10178;48.034;9.800;2023-12-28T04:30:05;3.20;99.90
20035;DHT22;10178;48.034;9.800;2023-12-28T04:32:34;3.20;99.90
20035;DHT22;10178;48.034;9.800;2023-12-28T04:35:00;3.10;99.90
20035;DHT22;10178;48.034;9.800;2023-12-28T04:37:26;3.00;99.90
20035;DHT22;10178;48.034;9.800;2023-12-28T04:39:52;3.00;99.90
20035;DHT22;10178;48.034;9.800;2023-12-28T04:42:18;2.90;99.90
20035;DHT22;10178;48.034;9.800;2023-12-28T04:44:44;2.80;99.90
20035;DHT22;10178;48.034;9.800;2023-12-28T04:47:10;2.80;99.90
20035;DHT22;10178;48.034;9.800;2023-12-28T04:49:35;2.80;99.90
20035;DHT22;10178;48.034;9.800;2023-12-28T04:52:01;2.70;99.90
20035;DHT22;10178;48.034;9.800;2023-12-28T04:54:27;2.70;99.90
20035;DHT22;10178;48.034;9.800;2023-12-28T04:56:53;2.70;99.90
20035;DHT22;10178;48.034;9.800;2023-12-28T04:59:18;2.70;99.90
20035;DHT22;10178;48.034;9.800;2023-12-28T05:01:44;2.80;99.90
20035;DHT22;10178;48.034;9.800;2023-12-28T05:04:10;2.70;99.90
20035;DHT22;10178;48.034;9.800;2023-12-28T05:06:36;2.70;99.90
20035;DHT22;10178;48.034;9.800;2023-12-28T05:09:02;2.70;99.90
20035;DHT22;10178;48.034;9.800;2023-12-28T05:11:27;2.80;99.90
20035;DHT22;10178;48.034;9.800;2023-12-28T05:13:53;2.80;99.90
20035;DHT22;10178;48.034;9.800;2023-12-28T05:16:19;2.90;99.90
20035;DHT22;10178;48.034;9.800;2023-12-28T05:18:45;2.90;99.90
20035;DHT22;10178;48.034;9.800;2023-12-28T05:21:12;3.00;99.90
20035;DHT22;10178;48.034;9.800;2023-12-28T05:23:38;2.80;99.90
20035;DHT22;10178;48.034;9.800;2023-12-28T05:26:04;3.10;99.90
20035;DHT22;10178;48.034;9.800;2023-12-28T05:28:30;3.50;99.90
20035;DHT22;10178;48.034;9.800;2023-12-28T05:30:56;3.10;99.90
20035;DHT22;10178;48.034;9.800;2023-12-28T05:33:22;3.00;99.90
20035;DHT22;10178;48.034;9.800;2023-12-28T05:35:48;3.10;99.90
20035;DHT22;10178;48.034;9.800;2023-12-28T05:38:13;3.00;99.90
20035;DHT22;10178;48.034;9.800;2023-12-28T05:40:39;2.90;99.90
20035;DHT22;10178;48.034;9.800;2023-12-28T05:43:05;2.80;99.90
20035;DHT22;10178;48.034;9.800;2023-12-28T05:45:31;3.00;99.90
20035;DHT22;10178;48.034;9.800;2023-12-28T05:47:57;3.00;99.90
20035;DHT22;10178;48.034;9.800;2023-12-28T05:50:22;3.20;99.90
20035;DHT22;10178;48.034;9.800;2023-12-28T05:52:48;3.20;99.90
20035;DHT22;10178;48.034;9.800;2023-12-28T05:55:13;3.30;99.90
20035;DHT22;10178;48.034;9.800;2023-12-28T05:57:39;3.20;99.90
20035;DHT22;10178;48.034;9.800;2023-12-28T06:00:05;3.20;99.90
20035;DHT22;10178;48.034;9.800;2023-12-28T06:02:32;3.10;99.90
20035;DHT22;10178;48.034;9.800;2023-12-28T06:04:57;3.10;99.90
20035;DHT22;10178;48.034;9.800;2023-12-28T06:07:23;3.00;99.90
20035;DHT22;10178;48.034;9.800;2023-12-28T06:09:49;3.10;99.90
20035;DHT22;10178;48.034;9.800;2023-12-28T06:12:14;3.10;99.90
20035;DHT22;10178;48.034;9.800;2023-12-28T06:14:40;3.20;99.90
20035;DHT22;10178;48.034;9.800;2023-12-28T06:17:06;3.20;99.90
20035;DHT22;10178;48.034;9.800;2023-12-28T06:19:32;3.00;99.90
20035;DHT22;10178;48.034;9.800;2023-12-28T06:21:57;3.00;99.90
20035;DHT22;10178;48.034;9.800;2023-12-28T06:24:24;3.20;99.90
20035;DHT22;10178;48.034;9.800;2023-12-28T06:26:49;3.10;99.90
20035;DHT22;10178;48.034;9.800;2023-12-28T06:29:15;3.10;99.90
20035;DHT22;10178;48.034;9.800;2023-12-28T06:31:41;3.00;99.90
20035;DHT22;10178;48.034;9.800;2023-12-28T06:34:07;3.00;99.90
20035;DHT22;10178;48.034;9.800;2023-12-28T06:36:33;2.80;99.90
20035;DHT22;10178;48.034;9.800;2023-12-28T06:38:59;2.80;99.90
20035;DHT22;10178;48.034;9.800;2023-12-28T06:41:25;2.90;99.90
20035;DHT22;10178;48.034;9.800;2023-12-28T06:43:51;2.90;99.90
20035;DHT22;10178;48.034;9.800;2023-12-28T06:46:17;3.00;99.90
20035;DHT22;10178;48.034;9.800;2023-12-28T06:48:43;3.00;99.90
20035;DHT22;10178;48.034;9.800;2023-12-28T06:51:09;2.90;99.90
20035;DHT22;10178;48.034;9.800;2023-12-28T06:53:35;2.90;99.90
20035;DHT22;10178;48.034;9.800;2023-12-28T06:56:01;2.80;99.90
20035;DHT22;10178;48.034;9.800;2023-12-28T06:58:26;2.90;99.90
20035;DHT22;10178;48.034;9.800;2023-12-28T07:00:52;2.80;99.90
20035;DHT22;10178;48.034;9.800;2023-12-28T07:03:18;2.80;99.90
20035;DHT22;10178;48.034;9.800;2023-12-28T07:05:43;2.90;99.90
20035;DHT22;10178;48.034;9.800;2023-12-28T07:08:09;2.80;99.90
20035;DHT22;10178;48.034;9.800;2023-12-28T07:10:35;2.80;99.90
20035;DHT22;10178;48.034;9.800;2023-12-28T07:13:01;3.20;99.90
20035;DHT22;10178;48.034;9.800;2023-12-28T07:15:27;3.50;99.90
20035;DHT22;10178;48.034;9.800;2023-12-28T07:17:52;3.60;99.90
20035;DHT22;10178;48.034;9.800;2023-12-28T07:20:18;3.80;99.90
20035;DHT22;10178;48.034;9.800;2023-12-28T07:22:43;3.50;99.90
20035;DHT22;10178;48.034;9.800;2023-12-28T07:25:09;3.80;99.90
20035;DHT22;10178;48.034;9.800;2023-12-28T07:27:35;3.40;99.90
20035;DHT22;10178;48.034;9.800;2023-12-28T07:30:02;3.40;99.90
20035;DHT22;10178;48.034;9.800;2023-12-28T07:32:29;3.00;99.90
20035;DHT22;10178;48.034;9.800;2023-12-28T07:34:55;3.00;99.90
20035;DHT22;10178;48.034;9.800;2023-12-28T07:37:20;2.90;99.90
20035;DHT22;10178;48.034;9.800;2023-12-28T07:39:49;2.80;99.90
20035;DHT22;10178;48.034;9.800;2023-12-28T07:42:14;3.10;99.90
20035;DHT22;10178;48.034;9.800;2023-12-28T07:44:43;2.90;99.90
20035;DHT22;10178;48.034;9.800;2023-12-28T07:47:09;2.90;99.90
20035;DHT22;10178;48.034;9.800;2023-12-28T07:49:35;2.80;99.90
20035;DHT22;10178;48.034;9.800;2023-12-28T07:52:00;3.00;99.90
20035;DHT22;10178;48.034;9.800;2023-12-28T07:54:26;3.00;99.90
20035;DHT22;10178;48.034;9.800;2023-12-28T07:56:51;2.90;99.90
20035;DHT22;10178;48.034;9.800;2023-12-28T07:59:17;2.80;99.90
20035;DHT22;10178;48.034;9.800;2023-12-28T08:01:43;3.20;99.90
20035;DHT22;10178;48.034;9.800;2023-12-28T08:04:08;3.40;99.90
20035;DHT22;10178;48.034;9.800;2023-12-28T08:06:34;3.50;99.90
20035;DHT22;10178;48.034;9.800;2023-12-28T08:09:00;3.40;99.90
20035;DHT22;10178;48.034;9.800;2023-12-28T08:11:28;3.30;99.90
20035;DHT22;10178;48.034;9.800;2023-12-28T08:13:54;3.30;99.90
20035;DHT22;10178;48.034;9.800;2023-12-28T08:16:20;3.40;99.90
20035;DHT22;10178;48.034;9.800;2023-12-28T08:18:46;3.40;99.90
20035;DHT22;10178;48.034;9.800;2023-12-28T08:21:12;3.40;99.90
20035;DHT22;10178;48.034;9.800;2023-12-28T08:23:37;3.40;99.90
20035;DHT22;10178;48.034;9.800;2023-12-28T08:26:03;3.50;99.90
20035;DHT22;10178;48.034;9.800;2023-12-28T08:28:30;3.50;99.90
20035;DHT22;10178;48.034;9.800;2023-12-28T08:30:56;3.70;99.90
20035;DHT22;10178;48.034;9.800;2023-12-28T08:33:22;3.80;99.90
20035;DHT22;10178;48.034;9.800;2023-12-28T08:35:48;3.90;99.90
20035;DHT22;10178;48.034;9.800;2023-12-28T08:38:14;4.00;99.90
20035;DHT22;10178;48.034;9.800;2023-12-28T08:40:39;4.20;99.90
20035;DHT22;10178;48.034;9.800;2023-12-28T08:43:05;4.30;99.90
20035;DHT22;10178;48.034;9.800;2023-12-28T08:45:31;4.40;99.90
20035;DHT22;10178;48.034;9.800;2023-12-28T08:47:56;4.40;99.90
20035;DHT22;10178;48.034;9.800;2023-12-28T08:50:22;4.40;99.90
20035;DHT22;10178;48.034;9.800;2023-12-28T08:52:48;4.40;99.90
20035;DHT22;10178;48.034;9.800;2023-12-28T08:55:14;4.50;99.90
20035;DHT22;10178;48.034;9.800;2023-12-28T08:57:39;4.50;99.90
20035;DHT22;10178;48.034;9.800;2023-12-28T09:00:06;4.60;99.90
20035;DHT22;10178;48.034;9.800;2023-12-28T09:02:31;4.60;99.90
20035;DHT22;10178;48.034;9.800;2023-12-28T09:05:00;4.70;99.90
20035;DHT22;10178;48.034;9.800;2023-12-28T09:07:26;4.80;99.90
20035;DHT22;10178;48.034;9.800;2023-12-28T09:09:52;4.70;99.90
20035;DHT22;10178;48.034;9.800;2023-12-28T09:12:48;4.90;99.90
20035;DHT22;10178;48.034;9.800;2023-12-28T09:15:14;4.90;99.90
20035;DHT22;10178;48.034;9.800;2023-12-28T09:17:39;4.90;99.90
20035;DHT22;10178;48.034;9.800;2023-12-28T09:20:05;5.00;99.90
20035;DHT22;10178;48.034;9.800;2023-12-28T09:22:32;5.10;99.90
20035;DHT22;10178;48.034;9.800;2023-12-28T09:24:57;5.10;99.90
20035;DHT22;10178;48.034;9.800;2023-12-28T09:27:23;5.20;99.90
20035;DHT22;10178;48.034;9.800;2023-12-28T09:29:48;5.10;99.90
20035;DHT22;10178;48.034;9.800;2023-12-28T09:32:14;5.10;99.90
20035;DHT22;10178;48.034;9.800;2023-12-28T09:34:42;5.20;99.90
20035;DHT22;10178;48.034;9.800;2023-12-28T09:37:07;5.20;99.90
20035;DHT22;10178;48.034;9.800;2023-12-28T09:39:33;5.20;99.90
20035;DHT22;10178;48.034;9.800;2023-12-28T09:42:04;5.20;99.90
20035;DHT22;10178;48.034;9.800;2023-12-28T09:44:31;5.30;99.90
20035;DHT22;10178;48.034;9.800;2023-12-28T09:46:57;5.30;99.90
20035;DHT22;10178;48.034;9.800;2023-12-28T09:49:23;5.30;99.90
20035;DHT22;10178;48.034;9.800;2023-12-28T09:51:49;5.50;99.90
20035;DHT22;10178;48.034;9.800;2023-12-28T09:54:15;5.60;99.90
20035;DHT22;10178;48.034;9.800;2023-12-28T09:56:41;5.50;99.90
20035;DHT22;10178;48.034;9.800;2023-12-28T09:59:07;5.60;99.90
20035;DHT22;10178;48.034;9.800;2023-12-28T10:01:36;5.50;99.90
20035;DHT22;10178;48.034;9.800;2023-12-28T10:04:02;5.60;99.90
20035;DHT22;10178;48.034;9.800;2023-12-28T10:06:32;5.60;99.90
20035;DHT22;10178;48.034;9.800;2023-12-28T10:08:57;5.70;99.90
20035;DHT22;10178;48.034;9.800;2023-12-28T10:11:23;5.70;99.90
20035;DHT22;10178;48.034;9.800;2023-12-28T10:13:50;5.80;99.90
20035;DHT22;10178;48.034;9.800;2023-12-28T10:16:16;5.70;99.90
20035;DHT22;10178;48.034;9.800;2023-12-28T10:18:42;5.80;99.90
20035;DHT22;10178;48.034;9.800;2023-12-28T10:21:09;5.70;99.90
20035;DHT22;10178;48.034;9.800;2023-12-28T10:23:35;5.70;99.90
20035;DHT22;10178;48.034;9.800;2023-12-28T10:26:02;5.80;99.90
20035;DHT22;10178;48.034;9.800;2023-12-28T10:28:31;5.70;99.90
20035;DHT22;10178;48.034;9.800;2023-12-28T10:30:58;5.70;99.90
20035;DHT22;10178;48.034;9.800;2023-12-28T10:33:24;5.60;99.90
20035;DHT22;10178;48.034;9.800;2023-12-28T10:35:51;5.60;99.90
20035;DHT22;10178;48.034;9.800;2023-12-28T10:38:17;5.70;99.90
20035;DHT22;10178;48.034;9.800;2023-12-28T10:40:44;5.70;99.90
20035;DHT22;10178;48.034;9.800;2023-12-28T10:43:14;5.80;99.90
20035;DHT22;10178;48.034;9.800;2023-12-28T10:45:41;5.80;99.90
20035;DHT22;10178;48.034;9.800;2023-12-28T10:48:10;5.90;99.90
20035;DHT22;10178;48.034;9.800;2023-12-28T10:50:41;6.00;99.90
20035;DHT22;10178;48.034;9.800;2023-12-28T10:53:14;6.10;99.90
20035;DHT22;10178;48.034;9.800;2023-12-28T10:58:14;6.10;99.90
20035;DHT22;10178;48.034;9.800;2023-12-28T11:00:49;6.10;99.90
20035;DHT22;10178;48.034;9.800;2023-12-28T11:03:23;6.20;99.90
20035;DHT22;10178;48.034;9.800;2023-12-28T11:05:49;6.30;99.90
20035;DHT22;10178;48.034;9.800;2023-12-28T11:08:16;6.20;99.90
20035;DHT22;10178;48.034;9.800;2023-12-28T11:10:43;6.30;99.90
20035;DHT22;10178;48.034;9.800;2023-12-28T11:13:09;6.40;99.90
20035;DHT22;10178;48.034;9.800;2023-12-28T11:15:36;6.40;99.90
20035;DHT22;10178;48.034;9.800;2023-12-28T11:18:03;6.30;99.90
20035;DHT22;10178;48.034;9.800;2023-12-28T11:20:29;6.40;99.90
20035;DHT22;10178;48.034;9.800;2023-12-28T11:22:57;6.40;99.90
20035;DHT22;10178;48.034;9.800;2023-12-28T11:25:23;6.40;99.90
20035;DHT22;10178;48.034;9.800;2023-12-28T11:27:48;6.50;99.90
20035;DHT22;10178;48.034;9.800;2023-12-28T11:30:14;6.50;99.90
20035;DHT22;10178;48.034;9.800;2023-12-28T11:32:43;6.50;99.90
20035;DHT22;10178;48.034;9.800;2023-12-28T11:35:13;6.50;99.90
20035;DHT22;10178;48.034;9.800;2023-12-28T11:37:46;6.60;99.90
20035;DHT22;10178;48.034;9.800;2023-12-28T11:40:13;6.70;99.90
20035;DHT22;10178;48.034;9.800;2023-12-28T11:42:54;6.70;99.90
20035;DHT22;10178;48.034;9.800;2023-12-28T11:45:21;6.80;99.90
20035;DHT22;10178;48.034;9.800;2023-12-28T11:47:47;6.80;99.90
20035;DHT22;10178;48.034;9.800;2023-12-28T11:50:23;6.80;99.90
20035;DHT22;10178;48.034;9.800;2023-12-28T11:52:49;6.80;99.90
20035;DHT22;10178;48.034;9.800;2023-12-28T11:55:24;6.80;99.90
20035;DHT22;10178;48.034;9.800;2023-12-28T11:58:19;6.80;99.90
20035;DHT22;10178;48.034;9.800;2023-12-28T12:00:44;6.90;99.90
20035;DHT22;10178;48.034;9.800;2023-12-28T12:03:13;6.80;99.90
20035;DHT22;10178;48.034;9.800;2023-12-28T12:05:39;6.80;99.90
20035;DHT22;10178;48.034;9.800;2023-12-28T12:08:35;6.90;99.90
20035;DHT22;10178;48.034;9.800;2023-12-28T12:11:02;6.90;99.90
20035;DHT22;10178;48.034;9.800;2023-12-28T12:13:30;7.00;99.90
20035;DHT22;10178;48.034;9.800;2023-12-28T12:15:56;6.90;99.90
20035;DHT22;10178;48.034;9.800;2023-12-28T12:18:22;7.00;99.90
20035;DHT22;10178;48.034;9.800;2023-12-28T12:20:49;7.00;99.90
20035;DHT22;10178;48.034;9.800;2023-12-28T12:23:15;7.00;99.90
20035;DHT22;10178;48.034;9.800;2023-12-28T12:25:41;7.00;99.90
20035;DHT22;10178;48.034;9.800;2023-12-28T12:28:07;7.00;99.90
20035;DHT22;10178;48.034;9.800;2023-12-28T12:30:32;7.10;99.90
20035;DHT22;10178;48.034;9.800;2023-12-28T12:32:59;7.10;99.90
20035;DHT22;10178;48.034;9.800;2023-12-28T12:35:24;7.20;99.90
20035;DHT22;10178;48.034;9.800;2023-12-28T12:37:51;7.40;99.90
20035;DHT22;10178;48.034;9.800;2023-12-28T12:40:17;7.30;99.90
20035;DHT22;10178;48.034;9.800;2023-12-28T12:42:52;7.20;99.90
20035;DHT22;10178;48.034;9.800;2023-12-28T12:45:19;7.20;99.90
20035;DHT22;10178;48.034;9.800;2023-12-28T12:47:46;7.20;99.90
20035;DHT22;10178;48.034;9.800;2023-12-28T12:50:12;7.30;99.90
20035;DHT22;10178;48.034;9.800;2023-12-28T12:52:56;7.30;99.90
20035;DHT22;10178;48.034;9.800;2023-12-28T12:55:23;7.30;99.90
20035;DHT22;10178;48.034;9.800;2023-12-28T12:57:48;7.30;99.90
20035;DHT22;10178;48.034;9.800;2023-12-28T13:00:15;7.30;99.90
20035;DHT22;10178;48.034;9.800;2023-12-28T13:02:41;7.30;99.90
20035;DHT22;10178;48.034;9.800;2023-12-28T13:05:07;7.30;99.90
20035;DHT22;10178;48.034;9.800;2023-12-28T13:07:34;7.30;99.90
20035;DHT22;10178;48.034;9.800;2023-12-28T13:10:00;7.30;99.90
20035;DHT22;10178;48.034;9.800;2023-12-28T13:12:25;7.30;99.90
20035;DHT22;10178;48.034;9.800;2023-12-28T13:14:51;7.20;99.90
20035;DHT22;10178;48.034;9.800;2023-12-28T13:17:17;7.10;99.90
20035;DHT22;10178;48.034;9.800;2023-12-28T13:19:43;7.10;99.90
20035;DHT22;10178;48.034;9.800;2023-12-28T13:22:08;7.00;99.90
20035;DHT22;10178;48.034;9.800;2023-12-28T13:24:34;7.00;99.90
20035;DHT22;10178;48.034;9.800;2023-12-28T13:27:00;7.00;99.90
20035;DHT22;10178;48.034;9.800;2023-12-28T13:29:26;7.00;99.90
20035;DHT22;10178;48.034;9.800;2023-12-28T13:31:52;7.00;99.90
20035;DHT22;10178;48.034;9.800;2023-12-28T13:34:17;6.90;99.90
20035;DHT22;10178;48.034;9.800;2023-12-28T13:36:44;6.90;99.90
20035;DHT22;10178;48.034;9.800;2023-12-28T13:39:10;6.80;99.90
20035;DHT22;10178;48.034;9.800;2023-12-28T13:41:40;6.80;99.90
20035;DHT22;10178;48.034;9.800;2023-12-28T13:44:06;6.80;99.90
20035;DHT22;10178;48.034;9.800;2023-12-28T13:46:38;6.70;99.90
20035;DHT22;10178;48.034;9.800;2023-12-28T13:49:04;6.70;99.90
20035;DHT22;10178;48.034;9.800;2023-12-28T13:51:36;6.70;99.90
20035;DHT22;10178;48.034;9.800;2023-12-28T13:54:02;6.70;99.90
20035;DHT22;10178;48.034;9.800;2023-12-28T13:56:27;6.70;99.90
20035;DHT22;10178;48.034;9.800;2023-12-28T13:58:54;6.70;99.90
20035;DHT22;10178;48.034;9.800;2023-12-28T14:01:20;6.70;99.90
20035;DHT22;10178;48.034;9.800;2023-12-28T14:03:45;6.70;99.90
20035;DHT22;10178;48.034;9.800;2023-12-28T14:06:13;6.70;99.90
20035;DHT22;10178;48.034;9.800;2023-12-28T14:08:39;6.70;99.90
20035;DHT22;10178;48.034;9.800;2023-12-28T14:11:04;6.70;99.90
20035;DHT22;10178;48.034;9.800;2023-12-28T14:13:36;6.70;99.90
20035;DHT22;10178;48.034;9.800;2023-12-28T14:16:03;6.70;99.90
20035;DHT22;10178;48.034;9.800;2023-12-28T14:18:29;6.70;99.90
20035;DHT22;10178;48.034;9.800;2023-12-28T14:20:54;6.70;99.90
20035;DHT22;10178;48.034;9.800;2023-12-28T14:23:20;6.70;99.90
20035;DHT22;10178;48.034;9.800;2023-12-28T14:25:46;6.80;99.90
20035;DHT22;10178;48.034;9.800;2023-12-28T14:28:17;6.80;99.90
20035;DHT22;10178;48.034;9.800;2023-12-28T14:30:43;6.90;99.90
20035;DHT22;10178;48.034;9.800;2023-12-28T14:33:10;6.90;99.90
20035;DHT22;10178;48.034;9.800;2023-12-28T14:35:36;6.90;99.90
20035;DHT22;10178;48.034;9.800;2023-12-28T14:38:04;6.90;99.90
20035;DHT22;10178;48.034;9.800;2023-12-28T14:40:31;6.90;99.90
20035;DHT22;10178;48.034;9.800;2023-12-28T14:42:56;6.90;99.90
20035;DHT22;10178;48.034;9.800;2023-12-28T14:45:22;6.90;99.90
20035;DHT22;10178;48.034;9.800;2023-12-28T14:47:47;7.00;99.90
20035;DHT22;10178;48.034;9.800;2023-12-28T14:50:13;7.10;99.90
20035;DHT22;10178;48.034;9.800;2023-12-28T14:52:39;7.30;99.90
20035;DHT22;10178;48.034;9.800;2023-12-28T14:55:08;7.30;99.90
20035;DHT22;10178;48.034;9.800;2023-12-28T14:57:34;7.30;99.90
20035;DHT22;10178;48.034;9.800;2023-12-28T15:00:05;7.30;99.90
20035;DHT22;10178;48.034;9.800;2023-12-28T15:02:32;7.30;99.90
20035;DHT22;10178;48.034;9.800;2023-12-28T15:04:58;7.20;99.90
20035;DHT22;10178;48.034;9.800;2023-12-28T15:07:25;7.10;99.90
20035;DHT22;10178;48.034;9.800;2023-12-28T15:09:51;7.10;99.90
20035;DHT22;10178;48.034;9.800;2023-12-28T15:12:22;7.00;99.90
20035;DHT22;10178;48.034;9.800;2023-12-28T15:14:47;7.10;99.90
20035;DHT22;10178;48.034;9.800;2023-12-28T15:17:13;7.00;99.90
20035;DHT22;10178;48.034;9.800;2023-12-28T15:19:39;7.00;99.90
20035;DHT22;10178;48.034;9.800;2023-12-28T15:22:05;7.00;99.90
20035;DHT22;10178;48.034;9.800;2023-12-28T15:24:31;6.90;99.90
20035;DHT22;10178;48.034;9.800;2023-12-28T15:26:57;6.90;99.90
20035;DHT22;10178;48.034;9.800;2023-12-28T15:29:22;6.90;99.90
20035;DHT22;10178;48.034;9.800;2023-12-28T15:31:48;6.80;99.90
20035;DHT22;10178;48.034;9.800;2023-12-28T15:34:13;6.80;99.90
20035;DHT22;10178;48.034;9.800;2023-12-28T15:36:39;6.80;99.90
20035;DHT22;10178;48.034;9.800;2023-12-28T15:39:06;6.80;99.90
20035;DHT22;10178;48.034;9.800;2023-12-28T15:41:31;6.90;99.90
20035;DHT22;10178;48.034;9.800;2023-12-28T15:43:58;6.80;99.90
20035;DHT22;10178;48.034;9.800;2023-12-28T15:46:23;6.80;99.90